This is the latest recevied weather packets stored in our database for station/object DN9CHO-13. If no packets are shown the sender has not sent any weather packets the latest 10 day(s).
| Time | Temp. | Humidity | Pressure | Rain* | Wind** | Luminosity | Snow |
|---|---|---|---|---|---|---|---|
| 1787750435 | 23.89° C | 67% | 1017.6 hPa | 0 mm | - | 47 W/m² | - |
| 1787749831 | 23.89° C | 68% | 1017.7 hPa | 0 mm | - | 31 W/m² | - |
| 1787749228 | 23.89° C | 67% | 1017.8 hPa | 0 mm | - | 14 W/m² | - |
| 1787748624 | 23.89° C | 68% | 1017.9 hPa | 0 mm | - | 17 W/m² | - |
| 1787748021 | 23.89° C | 68% | 1017.9 hPa | 0 mm | - | 21 W/m² | - |
| 1787747417 | 23.33° C | 70% | 1017.9 hPa | 0 mm | - | 28 W/m² | - |
| 1787746833 | 23.89° C | 67% | 1018 hPa | 0 mm | - | 25 W/m² | - |
| 1787746231 | 23.89° C | 68% | 1017.9 hPa | 0 mm | - | 28 W/m² | - |
| 1787745626 | 23.33° C | 68% | 1018 hPa | 0 mm | - | 32 W/m² | - |
| 1787745023 | 22.78° C | 69% | 1018.1 hPa | 0 mm | - | 36 W/m² | - |
| 1787744419 | 22.22° C | 73% | 1018.2 hPa | 0 mm | - | 37 W/m² | - |
| 1787743815 | 23.33° C | 70% | 1018.2 hPa | 0 mm | - | 29 W/m² | - |
| 1787743232 | 23.33° C | 68% | 1018 hPa | 0 mm | - | 221 W/m² | - |
| 1787742628 | 22.22° C | 72% | 1018.1 hPa | 0 mm | - | 63 W/m² | - |
| 1787742025 | 22.22° C | 72% | 1018.3 hPa | 0 mm | - | 51 W/m² | - |
| 1787741421 | 21.11° C | 75% | 1018.4 hPa | 0 mm | - | 86 W/m² | - |
| 1787740817 | 20.56° C | 76% | 1018.3 hPa | 0 mm | - | 24 W/m² | - |
| 1787740234 | 20.56° C | 77% | 1018.5 hPa | 0 mm | - | 14 W/m² | - |
| 1787739630 | 20.56° C | 76% | 1018.7 hPa | 0 mm | - | 18 W/m² | - |
| 1787739026 | 20.56° C | 77% | 1018.7 hPa | 0 mm | - | 21 W/m² | - |
| 1787738423 | 20.56° C | 76% | 1018.8 hPa | 0 mm | - | 16 W/m² | - |
| 1787737819 | 20.56° C | 77% | 1018.7 hPa | 0 mm | - | 14 W/m² | - |
| 1787737216 | 20° C | 78% | 1019 hPa | 0 mm | - | 10 W/m² | - |
| 1787736632 | 19.44° C | 80% | 1019 hPa | 0 mm | - | 10 W/m² | - |
| 1787736029 | 19.44° C | 79% | 1019.2 hPa | 0 mm | - | 9 W/m² | - |
* Rain latest hour (hover to see other rain measurements)
** Current wind speed in m/s (hover to see current wind gust speed)